Time;durP1;ratioP1;P1;durP2;ratioP2;P2;SDS_P1;SDS_P2;PMS_P1;PMS_P2;Temp;Humidity;BMP_temperature;BMP_pressure;BME280_temperature;BME280_humidity;BME280_pressure;Samples;Min_cycle;Max_cycle;Signal;HPM_P1;HPM_P2
2021/03/05 00:00:54;;;;;;;1.58;1.20;;;19.90;39.10;;;;;;6246668;22;20448;-78
2021/03/05 00:03:21;;;;;;;1.92;0.90;;;19.90;39.10;;;;;;6250748;22;20011;-78
2021/03/05 00:05:46;;;;;;;1.45;1.00;;;19.90;39.20;;;;;;6246358;22;20016;-78
2021/03/05 00:08:15;;;;;;;1.73;1.00;;;19.90;39.20;;;;;;6238683;22;20015;-78
2021/03/05 00:10:41;;;;;;;2.95;1.25;;;19.90;39.30;;;;;;6250815;22;20354;-78
2021/03/05 00:13:08;;;;;;;1.27;0.90;;;19.90;39.00;;;;;;6306712;22;20109;-78
2021/03/05 00:15:36;;;;;;;1.83;1.00;;;19.90;39.10;;;;;;6279779;22;20018;-77
2021/03/05 00:18:03;;;;;;;2.13;0.82;;;19.90;39.20;;;;;;6253602;22;20015;-77
2021/03/05 00:20:30;;;;;;;1.63;1.10;;;19.90;39.10;;;;;;6253476;22;20368;-77
2021/03/05 00:22:57;;;;;;;1.38;1.02;;;19.90;39.10;;;;;;6227504;22;20027;-77
2021/03/05 00:25:23;;;;;;;2.45;1.20;;;19.90;38.90;;;;;;6252503;22;20018;-77
2021/03/05 00:27:49;;;;;;;1.23;1.00;;;19.90;39.10;;;;;;6253969;22;20019;-77
2021/03/05 00:30:16;;;;;;;1.70;0.95;;;19.90;38.90;;;;;;6250720;22;20095;-77
2021/03/05 00:32:43;;;;;;;3.40;1.23;;;19.90;39.00;;;;;;6249500;22;20050;-77
2021/03/05 00:35:11;;;;;;;1.55;1.00;;;19.90;38.90;;;;;;6248541;22;20019;-77
2021/03/05 00:37:37;;;;;;;1.77;1.17;;;19.90;39.00;;;;;;6248319;22;20053;-77
2021/03/05 00:40:06;;;;;;;2.53;1.10;;;19.90;39.00;;;;;;6243894;22;20015;-79
2021/03/05 00:42:32;;;;;;;1.65;1.17;;;19.90;39.20;;;;;;6253556;22;20007;-80
2021/03/05 00:44:57;;;;;;;0.90;0.90;;;19.90;39.10;;;;;;6254725;22;20094;-79
2021/03/05 00:47:23;;;;;;;3.80;1.10;;;19.80;38.90;;;;;;6252201;22;20064;-79
2021/03/05 00:49:49;;;;;;;1.50;0.93;;;19.90;39.10;;;;;;6251787;22;20011;-79
2021/03/05 00:52:14;;;;;;;1.67;1.10;;;19.80;39.10;;;;;;6250381;22;20047;-79
2021/03/05 00:54:40;;;;;;;1.05;0.88;;;19.80;39.00;;;;;;6247825;22;20024;-79
2021/03/05 00:57:06;;;;;;;1.10;1.00;;;19.80;39.00;;;;;;6240116;22;20022;-79
2021/03/05 00:59:32;;;;;;;2.15;0.90;;;19.90;39.20;;;;;;6242112;22;20038;-79
2021/03/05 01:01:58;;;;;;;1.50;1.08;;;19.80;39.10;;;;;;6249786;22;20016;-79
2021/03/05 01:04:24;;;;;;;0.80;0.80;;;19.80;39.00;;;;;;6224807;22;20333;-79
2021/03/05 01:06:52;;;;;;;1.65;1.08;;;19.90;39.00;;;;;;6245944;22;20094;-79
2021/03/05 01:09:21;;;;;;;1.33;0.98;;;19.80;39.10;;;;;;6252130;22;20015;-79
2021/03/05 01:11:47;;;;;;;1.00;0.90;;;19.80;38.90;;;;;;6280165;22;20113;-79
2021/03/05 01:14:13;;;;;;;1.55;0.98;;;19.90;39.10;;;;;;6251319;22;20034;-79
2021/03/05 01:16:39;;;;;;;1.45;0.85;;;19.90;39.10;;;;;;6251145;22;20022;-79
2021/03/05 01:19:08;;;;;;;1.88;1.08;;;19.90;39.20;;;;;;6286639;22;20047;-79
2021/03/05 01:21:34;;;;;;;2.70;1.17;;;19.90;39.00;;;;;;6250000;22;20041;-79
2021/03/05 01:23:59;;;;;;;1.00;0.90;;;19.90;38.90;;;;;;6251457;22;20448;-79
2021/03/05 01:26:25;;;;;;;1.48;1.00;;;19.90;39.20;;;;;;6249385;22;20020;-79
2021/03/05 01:28:51;;;;;;;0.90;0.90;;;19.80;39.00;;;;;;6250177;22;20136;-79
2021/03/05 01:31:16;;;;;;;2.30;1.30;;;19.90;39.10;;;;;;6248151;22;20053;-79
2021/03/05 01:33:42;;;;;;;1.48;0.95;;;19.90;39.10;;;;;;6280366;22;20011;-79
2021/03/05 01:36:09;;;;;;;1.08;0.98;;;19.90;39.10;;;;;;6251570;22;20042;-79
2021/03/05 01:38:35;;;;;;;2.20;1.10;;;19.90;38.90;;;;;;6254364;22;20019;-79
2021/03/05 01:41:01;;;;;;;2.33;1.27;;;19.90;38.90;;;;;;6258373;22;20445;-79
2021/03/05 01:43:30;;;;;;;2.30;0.75;;;19.90;38.90;;;;;;6285901;22;20063;-79
2021/03/05 01:45:56;;;;;;;1.58;1.10;;;19.90;39.10;;;;;;6249348;22;20376;-79
2021/03/05 01:48:22;;;;;;;1.70;0.95;;;19.90;38.80;;;;;;6231493;22;20110;-79
2021/03/05 01:50:53;;;;;;;0.90;0.90;;;19.90;39.10;;;;;;6249370;22;20019;-79
2021/03/05 01:53:20;;;;;;;2.00;0.90;;;19.90;38.90;;;;;;6233326;22;20424;-79
2021/03/05 01:55:46;;;;;;;1.48;1.00;;;19.80;39.10;;;;;;6223850;22;20099;-79
2021/03/05 01:58:12;;;;;;;2.67;1.20;;;19.90;39.00;;;;;;6248852;22;20421;-79
2021/03/05 02:00:42;;;;;;;1.00;0.90;;;19.90;39.20;;;;;;6249083;22;20012;-79
2021/03/05 02:03:08;;;;;;;1.77;1.05;;;19.90;39.00;;;;;;6307298;22;20463;-79
2021/03/05 02:05:35;;;;;;;2.00;0.93;;;19.80;39.00;;;;;;6279975;22;20015;-79
2021/03/05 02:08:01;;;;;;;1.23;0.85;;;19.80;39.00;;;;;;6249804;22;20422;-79
2021/03/05 02:10:27;;;;;;;1.77;1.10;;;19.80;38.90;;;;;;6249815;22;20027;-79
2021/03/05 02:12:53;;;;;;;1.17;0.90;;;19.90;39.00;;;;;;6246930;22;20023;-79
2021/03/05 02:15:18;;;;;;;2.97;0.98;;;19.90;38.80;;;;;;6245496;22;20019;-79
2021/03/05 02:17:55;;;;;;;0.85;0.82;;;19.90;38.80;;;;;;6254253;22;20541;-79
2021/03/05 02:20:42;;;;;;;1.40;0.93;;;19.80;38.90;;;;;;6278056;22;20113;-79
2021/03/05 02:23:35;;;;;;;1.17;0.90;;;19.80;38.80;;;;;;6249564;22;20019;-79
2021/03/05 02:26:54;;;;;;;2.53;1.23;;;19.80;39.00;;;;;;6249481;22;20506;-79
2021/03/05 02:30:08;;;;;;;1.50;0.90;;;19.80;38.90;;;;;;6246967;22;20011;-79
2021/03/05 02:32:45;;;;;;;1.08;0.98;;;19.80;38.80;;;;;;6180829;22;20020;-79
2021/03/05 02:35:13;;;;;;;0.95;0.88;;;19.80;38.90;;;;;;6254187;22;20095;-79
2021/03/05 02:37:42;;;;;;;0.90;0.80;;;19.80;38.80;;;;;;6226814;22;20073;-79
2021/03/05 02:40:13;;;;;;;1.20;0.77;;;19.80;38.90;;;;;;6224159;22;20501;-78
2021/03/05 02:42:56;;;;;;;1.75;0.90;;;19.80;39.00;;;;;;6255340;22;20011;-79
2021/03/05 02:45:25;;;;;;;1.45;0.85;;;19.80;38.80;;;;;;6285715;22;20023;-78
2021/03/05 02:48:03;;;;;;;1.95;0.80;;;19.80;38.80;;;;;;6251829;22;20018;-79
2021/03/05 02:50:31;;;;;;;1.80;0.80;;;19.80;38.90;;;;;;6285720;22;20011;-79
2021/03/05 02:53:01;;;;;;;1.50;0.82;;;19.80;38.70;;;;;;6249406;22;20015;-79
2021/03/05 02:55:28;;;;;;;1.48;0.70;;;19.70;39.00;;;;;;6224122;22;20012;-79
2021/03/05 02:57:56;;;;;;;1.48;0.90;;;19.80;38.80;;;;;;6282354;22;20046;-79
2021/03/05 03:00:24;;;;;;;0.98;0.82;;;19.80;38.90;;;;;;6248877;22;20087;-79
2021/03/05 03:02:55;;;;;;;3.08;1.27;;;19.80;38.70;;;;;;6253193;22;20042;-79
2021/03/05 03:05:23;;;;;;;1.83;0.90;;;19.80;38.70;;;;;;6254257;22;20023;-79
2021/03/05 03:07:50;;;;;;;0.98;0.88;;;19.80;38.80;;;;;;6256843;22;20078;-79
2021/03/05 03:10:20;;;;;;;1.52;0.85;;;19.80;38.80;;;;;;6225533;22;20015;-79
2021/03/05 03:12:46;;;;;;;0.90;0.70;;;19.80;38.90;;;;;;6248812;22;20465;-79
2021/03/05 03:15:15;;;;;;;1.60;1.00;;;19.80;38.70;;;;;;6248051;22;20050;-79
2021/03/05 03:17:46;;;;;;;1.25;0.90;;;19.80;38.70;;;;;;6248315;22;20098;-79
2021/03/05 03:20:14;;;;;;;1.45;0.85;;;19.80;38.70;;;;;;6244749;22;20345;-79
2021/03/05 03:22:40;;;;;;;1.27;0.80;;;19.80;38.60;;;;;;6279431;22;20015;-79
2021/03/05 03:25:06;;;;;;;1.42;1.02;;;19.80;38.80;;;;;;6254561;22;20046;-79
2021/03/05 03:27:32;;;;;;;2.03;1.02;;;19.80;38.50;;;;;;6250708;22;20015;-79
2021/03/05 03:29:58;;;;;;;1.88;1.15;;;19.80;38.60;;;;;;6246539;22;20012;-79
2021/03/05 03:32:24;;;;;;;2.08;1.05;;;19.80;38.60;;;;;;6246738;22;20054;-79
2021/03/05 03:34:50;;;;;;;1.75;0.95;;;19.80;38.70;;;;;;6250461;22;20019;-79
2021/03/05 03:37:18;;;;;;;1.05;0.80;;;19.80;38.60;;;;;;6223460;22;20016;-79
2021/03/05 03:39:44;;;;;;;1.05;0.80;;;19.80;38.70;;;;;;6232552;22;20016;-79
2021/03/05 03:42:10;;;;;;;2.08;0.70;;;19.80;38.70;;;;;;6246924;22;20039;-79
2021/03/05 03:44:36;;;;;;;2.60;0.95;;;19.80;38.60;;;;;;6253431;22;20011;-79
2021/03/05 03:47:02;;;;;;;1.40;0.80;;;19.80;38.50;;;;;;6253734;22;20027;-79
2021/03/05 03:49:39;;;;;;;1.20;0.85;;;19.80;38.50;;;;;;6252005;22;20081;-79
2021/03/05 03:52:26;;;;;;;1.55;0.70;;;19.80;38.70;;;;;;6232563;22;20342;-79
2021/03/05 03:54:52;;;;;;;1.52;0.80;;;19.80;38.60;;;;;;6252238;22;20020;-79
2021/03/05 03:57:21;;;;;;;0.88;0.77;;;19.90;38.70;;;;;;6236117;22;20032;-79
2021/03/05 03:59:48;;;;;;;2.10;0.90;;;19.80;38.50;;;;;;6248789;22;20011;-79
2021/03/05 04:02:14;;;;;;;0.60;0.60;;;19.80;38.50;;;;;;6233263;22;20015;-79
2021/03/05 04:04:40;;;;;;;2.13;0.80;;;19.80;38.70;;;;;;6244523;22;20020;-80
2021/03/05 04:07:08;;;;;;;1.05;0.90;;;19.80;38.60;;;;;;6240390;22;20020;-79
2021/03/05 04:09:36;;;;;;;1.90;0.82;;;19.80;38.60;;;;;;6251317;22;20015;-79
2021/03/05 04:12:03;;;;;;;1.23;0.90;;;19.80;38.40;;;;;;6253833;22;20015;-79
2021/03/05 04:14:31;;;;;;;1.30;0.80;;;19.80;38.50;;;;;;6253377;22;20068;-79
2021/03/05 04:16:56;;;;;;;0.80;0.70;;;19.90;38.50;;;;;;6245601;22;20024;-79
2021/03/05 04:19:24;;;;;;;1.33;0.95;;;19.90;38.40;;;;;;6247869;22;20314;-79
2021/03/05 04:21:52;;;;;;;0.82;0.80;;;19.90;38.30;;;;;;6306627;22;20014;-79
2021/03/05 04:24:20;;;;;;;0.80;0.80;;;19.90;38.20;;;;;;6306564;22;20022;-79
2021/03/05 04:26:47;;;;;;;1.75;0.98;;;19.90;38.20;;;;;;6306570;22;20011;-79
2021/03/05 04:29:14;;;;;;;0.70;0.70;;;19.90;38.20;;;;;;6249255;22;20015;-79
2021/03/05 04:31:40;;;;;;;1.27;0.82;;;20.00;38.30;;;;;;6247255;22;20026;-79
2021/03/05 04:34:06;;;;;;;1.63;1.17;;;20.00;38.20;;;;;;6284867;22;20040;-79
2021/03/05 04:36:31;;;;;;;1.02;0.80;;;19.90;38.30;;;;;;6249851;22;20026;-79
2021/03/05 04:38:57;;;;;;;0.93;0.70;;;20.00;38.30;;;;;;6246968;22;20019;-79
2021/03/05 04:41:24;;;;;;;1.10;0.95;;;19.90;38.20;;;;;;6235684;22;20441;-79
2021/03/05 04:43:49;;;;;;;0.90;0.70;;;19.90;38.20;;;;;;6247817;22;20015;-79
2021/03/05 04:46:15;;;;;;;0.90;0.80;;;19.90;38.20;;;;;;6285265;22;20441;-79
2021/03/05 04:48:40;;;;;;;1.83;0.77;;;19.80;38.80;;;;;;6247338;22;20024;-79
2021/03/05 04:51:06;;;;;;;0.70;0.70;;;19.80;38.60;;;;;;6246677;22;20090;-79
2021/03/05 04:53:32;;;;;;;1.20;0.80;;;19.80;39.00;;;;;;6248210;22;20016;-79
2021/03/05 04:55:57;;;;;;;1.00;0.70;;;19.70;38.40;;;;;;6249447;22;20023;-79
2021/03/05 04:58:23;;;;;;;1.52;0.90;;;19.70;38.40;;;;;;6249759;22;20161;-78
2021/03/05 05:00:49;;;;;;;1.60;1.10;;;19.70;38.60;;;;;;6230155;22;20106;-78
2021/03/05 05:03:14;;;;;;;0.88;0.70;;;19.70;38.70;;;;;;6250030;22;20081;-79
2021/03/05 05:05:40;;;;;;;1.40;0.80;;;19.70;39.20;;;;;;6249530;22;20015;-79
2021/03/05 05:08:07;;;;;;;1.50;0.90;;;19.70;38.80;;;;;;6246061;22;20016;-79
2021/03/05 05:10:33;;;;;;;0.60;0.60;;;19.70;38.60;;;;;;6222588;22;20021;-79
2021/03/05 05:12:59;;;;;;;0.80;0.63;;;19.70;39.00;;;;;;6249196;22;20401;-79
2021/03/05 05:15:24;;;;;;;0.80;0.80;;;19.70;38.80;;;;;;6249671;22;20047;-79
2021/03/05 05:17:50;;;;;;;0.95;0.80;;;19.70;38.70;;;;;;6284396;22;20024;-79
2021/03/05 05:20:16;;;;;;;1.45;0.98;;;19.70;38.30;;;;;;6244198;22;20019;-78
2021/03/05 05:22:42;;;;;;;1.58;0.75;;;19.70;38.80;;;;;;6278304;22;20098;-79
2021/03/05 05:25:08;;;;;;;2.10;1.10;;;19.80;38.30;;;;;;6231931;22;20495;-79
2021/03/05 05:27:35;;;;;;;4.22;1.33;;;19.70;38.40;;;;;;6248071;22;20043;-79
2021/03/05 05:30:02;;;;;;;1.02;0.65;;;19.70;38.30;;;;;;6223274;22;20016;-79
2021/03/05 05:32:27;;;;;;;0.85;0.80;;;19.80;38.40;;;;;;6249104;22;20069;-78
2021/03/05 05:35:03;;;;;;;1.55;0.77;;;19.80;38.30;;;;;;6248579;22;20094;-78
2021/03/05 05:37:34;;;;;;;2.20;0.70;;;19.80;38.20;;;;;;6244639;22;20022;-79
2021/03/05 05:40:03;;;;;;;3.20;1.05;;;19.80;38.20;;;;;;6250953;22;20004;-79
2021/03/05 05:42:29;;;;;;;1.52;0.90;;;19.90;38.50;;;;;;6224981;22;20046;-79
2021/03/05 05:49:41;;;;;;;;;;;;;;;;;;;;;
2021/03/05 06:05:53;;;;;;;;;;;;;;;;;;;;;
2021/03/05 06:13:35;;;;;;;;;;;;;;;;;;;;;
2021/03/05 06:21:41;;;;;;;22.70;4.47;;;19.80;39.20;;;;;;5953732;23;20023;-79
2021/03/05 06:25:13;;;;;;;;;;;;;;;;;;;;;
2021/03/05 06:37:27;;;;;;;36.70;6.38;;;19.80;39.10;;;;;;6104909;23;20360;-79
2021/03/05 06:45:19;;;;;;;36.13;6.57;;;19.80;39.20;;;;;;6064376;23;20094;-79
2021/03/05 06:49:01;;;;;;;46.67;9.38;;;19.80;39.20;;;;;;6053303;23;20349;-79
2021/03/05 06:51:35;;;;;;;30.40;5.65;;;19.90;39.20;;;;;;6169072;23;20472;-79
2021/03/05 06:54:37;;;;;;;23.58;5.68;;;19.90;39.30;;;;;;6193885;23;20066;-79
2021/03/05 06:57:49;;;;;;;29.30;5.55;;;19.90;39.20;;;;;;6219211;23;20082;-79
2021/03/05 07:00:46;;;;;;;;;;;20.00;39.30;;;;;;6191814;23;20023;-79
2021/03/05 07:08:24;;;;;;;34.03;6.68;;;20.10;38.90;;;;;;6098408;23;20407;-79
2021/03/05 07:11:56;;;;;;;36.38;7.53;;;20.10;39.00;;;;;;6092857;23;20560;-78
2021/03/05 07:15:57;;;;;;;61.88;11.63;;;20.10;38.90;;;;;;6103502;23;20081;-79
2021/03/05 07:19:07;;;;;;;67.55;13.82;;;20.20;38.60;;;;;;6096704;23;20052;-79
2021/03/05 07:22:50;;;;;;;41.55;8.98;;;20.20;38.30;;;;;;5949655;24;20065;-78
2021/03/05 07:26:43;;;;;;;;;;;;;;;;;;;;;
2021/03/05 07:30:29;;;;;;;;;;;;;;;;;;;;;
2021/03/05 07:41:55;;;;;;;57.00;12.38;;;20.20;38.30;;;;;;6071988;23;20098;-79
2021/03/05 08:05:25;;;;;;;34.65;8.70;;;20.00;38.50;;;;;;5895645;24;20532;-79
2021/03/05 08:17:26;;;;;;;49.38;11.35;;;20.00;38.70;;;;;;5868145;24;20348;-79
2021/03/05 08:32:28;;;;;;;43.13;10.48;;;20.00;38.70;;;;;;5950403;23;20104;-79
2021/03/05 08:40:28;;;;;;;47.17;8.95;;;19.90;39.10;;;;;;6006580;23;20082;-79
2021/03/05 08:48:21;;;;;;;;;;;;;;;;;;;;;
2021/03/05 08:55:36;;;;;;;33.50;7.55;;;20.00;38.90;;;;;;6070325;23;20094;-79
2021/03/05 08:59:27;;;;;;;49.03;10.77;;;19.90;38.90;;;;;;6070076;23;20096;-79
2021/03/05 09:23:01;;;;;;;34.70;8.15;;;20.00;38.90;;;;;;6267360;22;20023;-79
2021/03/05 09:26:38;;;;;;;31.90;8.30;;;20.00;38.90;;;;;;6188718;22;20503;-79
2021/03/05 09:30:40;;;;;;;37.83;8.50;;;20.00;38.60;;;;;;6253826;22;20485;-79
2021/03/05 09:53:26;;;;;;;32.35;7.82;;;19.90;38.90;;;;;;6182613;23;20432;-79
2021/03/05 09:57:05;;;;;;;35.42;8.50;;;20.00;38.90;;;;;;6128427;23;20366;-79
2021/03/05 10:00:28;;;;;;;29.75;8.30;;;20.00;39.00;;;;;;6093719;23;20027;-79
2021/03/05 10:03:55;;;;;;;29.67;7.82;;;20.00;38.60;;;;;;6162903;23;20017;-79
2021/03/05 10:14:48;;;;;;;28.75;6.95;;;20.00;38.40;;;;;;6215284;23;20350;-79
2021/03/05 10:18:35;;;;;;;;;;;;;;;;;;;;;
2021/03/05 10:22:19;;;;;;;;;;;;;;;;;;;;;
2021/03/05 10:30:00;;;;;;;;;;;;;;;;;;;;;
2021/03/05 10:52:58;;;;;;;;;;;;;;;;;;;;;
2021/03/05 10:56:27;;;;;;;;;;;;;;;;;;;;;
2021/03/05 11:00:57;;;;;;;32.47;7.95;;;20.20;37.80;;;;;;6176265;23;20527;-79
2021/03/05 11:07:14;;;;;;;26.33;7.20;;;20.30;37.70;;;;;;6180177;23;20402;-79
2021/03/05 11:09:42;;;;;;;26.55;6.50;;;20.30;37.70;;;;;;6182276;23;20059;-79
2021/03/05 11:12:08;;;;;;;31.60;7.22;;;20.30;38.20;;;;;;6288183;22;20380;-79
2021/03/05 11:14:34;;;;;;;32.15;6.60;;;20.40;37.50;;;;;;6307042;22;20541;-79
2021/03/05 11:17:00;;;;;;;26.30;6.00;;;20.40;38.30;;;;;;6306491;22;20039;-79
2021/03/05 11:19:26;;;;;;;27.65;6.28;;;20.30;38.20;;;;;;6306827;22;20140;-79
2021/03/05 11:21:53;;;;;;;34.97;7.32;;;20.40;37.80;;;;;;6279531;22;20007;-79
2021/03/05 11:24:19;;;;;;;24.50;6.65;;;20.50;38.10;;;;;;6248516;22;20026;-79
2021/03/05 11:26:48;;;;;;;23.83;5.68;;;20.50;37.90;;;;;;6251358;22;20396;-79
2021/03/05 11:29:15;;;;;;;26.42;6.18;;;20.50;37.70;;;;;;6248634;22;20066;-79
2021/03/05 11:31:42;;;;;;;20.67;5.80;;;20.50;38.10;;;;;;6251809;22;20035;-79
2021/03/05 11:34:08;;;;;;;20.70;6.68;;;20.60;38.00;;;;;;6286877;22;20019;-79
2021/03/05 11:36:34;;;;;;;25.05;6.57;;;20.60;38.40;;;;;;6284049;22;20050;-79
2021/03/05 11:39:00;;;;;;;28.02;6.78;;;20.60;38.30;;;;;;6251473;22;20019;-79
2021/03/05 11:41:25;;;;;;;23.08;6.60;;;20.70;37.90;;;;;;6249776;22;20109;-79
2021/03/05 11:43:53;;;;;;;26.80;6.97;;;20.70;38.30;;;;;;6250650;22;20046;-79
2021/03/05 11:46:46;;;;;;;23.77;6.28;;;20.80;38.20;;;;;;6226698;22;20016;-79
2021/03/05 11:49:29;;;;;;;25.23;6.53;;;20.80;38.20;;;;;;6254072;22;20479;-79
2021/03/05 11:52:06;;;;;;;23.45;6.07;;;20.90;38.60;;;;;;6282263;22;20012;-79
2021/03/05 11:55:09;;;;;;;23.42;6.55;;;21.00;37.80;;;;;;6250982;22;20039;-79
2021/03/05 11:57:52;;;;;;;;;;;;;;;;;;;;;
2021/03/05 12:01:00;;;;;;;19.17;5.63;;;21.20;37.50;;;;;;6285250;22;20493;-79
2021/03/05 12:03:36;;;;;;;27.15;5.97;;;21.30;37.60;;;;;;6243248;22;20026;-79
2021/03/05 12:06:09;;;;;;;17.63;5.82;;;21.40;37.30;;;;;;6267838;22;20030;-79
2021/03/05 12:08:37;;;;;;;18.13;5.40;;;21.40;37.10;;;;;;6248943;22;20023;-79
2021/03/05 12:11:03;;;;;;;21.48;6.22;;;21.50;36.90;;;;;;6253913;22;20018;-79
2021/03/05 12:13:29;;;;;;;24.83;6.88;;;21.70;36.50;;;;;;6287321;22;20012;-79
2021/03/05 12:15:55;;;;;;;21.70;5.63;;;22.00;36.20;;;;;;6248175;22;20026;-79
2021/03/05 12:18:24;;;;;;;18.15;5.47;;;22.30;35.90;;;;;;6247968;22;20348;-79
2021/03/05 12:20:57;;;;;;;19.80;5.47;;;22.70;35.50;;;;;;6285911;22;20022;-79
2021/03/05 12:23:27;;;;;;;14.30;5.00;;;22.70;35.30;;;;;;6255077;22;20011;-79
2021/03/05 12:25:53;;;;;;;18.08;6.07;;;22.90;35.20;;;;;;6223535;22;20026;-79
2021/03/05 12:28:19;;;;;;;26.25;6.18;;;23.00;35.80;;;;;;6248211;22;20043;-79
2021/03/05 12:30:44;;;;;;;17.65;5.72;;;23.50;35.50;;;;;;6251829;22;20118;-79
2021/03/05 12:33:11;;;;;;;29.33;6.60;;;24.70;33.70;;;;;;6248676;22;20012;-79
2021/03/05 12:35:37;;;;;;;17.83;5.10;;;26.10;31.90;;;;;;6249088;22;20112;-79
2021/03/05 12:38:03;;;;;;;22.10;5.93;;;27.30;30.70;;;;;;6249581;22;20016;-79
2021/03/05 12:40:28;;;;;;;21.65;6.18;;;28.10;29.70;;;;;;6284207;22;20008;-80
2021/03/05 12:42:57;;;;;;;18.30;5.35;;;28.80;29.10;;;;;;6286179;22;20014;-80
2021/03/05 12:49:41;;;;;;;;;;;;;;;;;;;;;
2021/03/05 13:03:57;;;;;;;17.88;6.22;;;28.90;28.60;;;;;;6147586;23;20105;-80
2021/03/05 13:07:35;;;;;;;;;;;;;;;;;;;;;
2021/03/05 13:11:03;;;;;;;17.30;5.35;;;29.00;28.80;;;;;;6187339;23;20100;-79
2021/03/05 13:14:30;;;;;;;;;;;;;;;;;;;;;
2021/03/05 13:18:07;;;;;;;16.60;5.07;;;27.70;29.70;;;;;;6257339;22;20030;-79
2021/03/05 13:32:20;;;;;;;;;;;;;;;;;;;;;
2021/03/05 13:35:55;;;;;;;;;;;;;;;;;;;;;
2021/03/05 13:47:21;;;;;;;16.08;4.68;;;23.80;34.60;;;;;;6264908;22;20029;-79
2021/03/05 13:50:36;;;;;;;15.02;4.90;;;23.80;34.90;;;;;;6224084;22;20027;-79
2021/03/05 13:54:29;;;;;;;13.48;4.35;;;23.70;35.10;;;;;;6283113;22;20386;-79
2021/03/05 14:13:45;;;;;;;15.35;4.65;;;23.70;35.10;;;;;;6270277;22;20457;-79
2021/03/05 14:17:30;;;;;;;13.38;3.50;;;23.80;35.10;;;;;;6215443;22;20532;-79
2021/03/05 14:24:55;;;;;;;;;;;;;;;;;;;;;
2021/03/05 14:28:01;;;;;;;11.40;3.15;;;23.90;35.10;;;;;;6268027;22;20046;-80
2021/03/05 14:34:55;;;;;;;12.55;4.45;;;24.00;34.90;;;;;;6181663;23;20125;-79
2021/03/05 14:41:47;;;;;;;12.32;3.92;;;24.10;35.20;;;;;;6185262;22;20029;-79
2021/03/05 14:49:22;;;;;;;12.43;3.85;;;24.20;35.10;;;;;;6219436;22;20050;-79
2021/03/05 14:53:03;;;;;;;10.77;3.17;;;24.00;35.20;;;;;;6222689;22;20095;-79
2021/03/05 15:04:24;;;;;;;;;;;;;;;;;;;;;
2021/03/05 15:08:10;;;;;;;;;;;;;;;;;;;;;
2021/03/05 15:18:49;;;;;;;;;;;;;;;;;;;;;
2021/03/05 15:25:49;;;;;;;11.93;3.30;;;24.50;34.80;;;;;;6216442;22;20013;-79
2021/03/05 15:29:08;;;;;;;;;;;;;;;;;;;;;
2021/03/05 15:33:00;;;;;;;11.95;3.47;;;24.60;35.00;;;;;;6261916;22;20345;-79
2021/03/05 15:40:22;;;;;;;8.60;3.40;;;24.60;35.00;;;;;;6212267;22;20023;-79
2021/03/05 15:58:17;;;;;;;8.02;3.08;;;24.60;34.70;;;;;;6179265;23;20071;-79
2021/03/05 16:04:28;;;;;;;7.57;2.50;;;24.30;35.30;;;;;;6152705;23;20013;-80
2021/03/05 16:06:53;;;;;;;13.90;3.35;;;24.30;35.40;;;;;;6155066;23;20118;-80
2021/03/05 16:09:41;;;;;;;8.80;3.20;;;24.30;35.30;;;;;;6182011;23;20419;-79
2021/03/05 16:12:24;;;;;;;8.07;2.92;;;24.30;35.50;;;;;;6156744;23;20017;-79
2021/03/05 16:15:20;;;;;;;10.63;3.22;;;24.30;35.30;;;;;;6197464;22;20027;-79
2021/03/05 16:18:06;;;;;;;8.23;2.63;;;24.30;35.40;;;;;;6227339;22;20095;-79
2021/03/05 16:24:44;;;;;;;7.05;2.50;;;24.40;35.40;;;;;;6243980;22;20114;-79
2021/03/05 16:28:27;;;;;;;;;;;;;;;;;;;;;
2021/03/05 16:39:30;;;;;;;6.47;2.50;;;24.40;35.30;;;;;;6091942;23;20033;-79
2021/03/05 16:46:45;;;;;;;;;;;;;;;;;;;;;
2021/03/05 16:49:48;;;;;;;7.75;2.33;;;23.90;36.00;;;;;;6224997;23;20324;-79
2021/03/05 16:52:34;;;;;;;;;;;;;;;;;;;;;
2021/03/05 16:55:41;;;;;;;9.90;2.63;;;23.40;36.30;;;;;;6215012;23;20054;-79
2021/03/05 17:03:38;;;;;;;;;;;;;;;;;;;;;
2021/03/05 17:10:30;;;;;;;5.15;2.15;;;22.80;37.20;;;;;;6062148;23;20033;-80
2021/03/05 17:13:45;;;;;;;6.72;2.53;;;22.60;37.00;;;;;;6213644;22;20081;-79
2021/03/05 17:17:22;;;;;;;;;;;;;;;;;;;;;
2021/03/05 17:20:01;;;;;;;10.57;3.00;;;22.50;37.90;;;;;;6224901;22;20102;-79
2021/03/05 17:22:29;;;;;;;8.90;2.88;;;22.50;37.80;;;;;;6222145;23;20433;-79
2021/03/05 17:24:56;;;;;;;8.07;2.45;;;22.40;38.00;;;;;;6209119;22;20016;-79
2021/03/05 17:27:22;;;;;;;9.43;2.60;;;22.40;38.00;;;;;;6218834;23;20012;-79
2021/03/05 17:29:48;;;;;;;4.68;2.40;;;22.40;38.10;;;;;;6227553;23;20020;-79
2021/03/05 17:32:14;;;;;;;8.77;2.25;;;22.30;38.20;;;;;;6215693;22;20020;-79
2021/03/05 17:34:40;;;;;;;11.10;2.65;;;22.30;38.10;;;;;;6224071;22;20020;-79
2021/03/05 17:37:06;;;;;;;8.20;2.67;;;22.20;38.30;;;;;;6249306;22;20061;-79
2021/03/05 17:39:31;;;;;;;9.50;2.33;;;22.20;38.30;;;;;;6227071;22;20020;-79
2021/03/05 17:41:58;;;;;;;5.78;2.42;;;22.10;38.40;;;;;;6276421;22;20016;-79
2021/03/05 17:44:24;;;;;;;10.45;2.53;;;22.00;38.50;;;;;;6224132;22;20023;-79
2021/03/05 17:46:50;;;;;;;4.13;2.10;;;22.00;38.20;;;;;;6249302;22;20015;-79
2021/03/05 17:49:15;;;;;;;8.15;2.58;;;22.00;38.40;;;;;;6223731;22;20039;-79
2021/03/05 17:51:41;;;;;;;6.82;1.98;;;21.90;38.40;;;;;;6249776;22;20008;-79
2021/03/05 17:54:07;;;;;;;6.35;1.90;;;21.90;38.30;;;;;;6276491;22;20081;-79
2021/03/05 17:56:33;;;;;;;6.28;2.10;;;21.90;38.60;;;;;;6249708;22;20019;-79
2021/03/05 17:59:00;;;;;;;6.63;2.53;;;21.90;38.50;;;;;;6249269;22;20019;-79
2021/03/05 18:01:26;;;;;;;8.25;2.17;;;21.80;39.00;;;;;;6276347;22;20035;-79
2021/03/05 18:03:52;;;;;;;6.15;2.22;;;21.80;38.40;;;;;;6222456;23;20020;-79
2021/03/05 18:06:17;;;;;;;5.15;2.28;;;21.70;38.40;;;;;;6268332;22;20020;-79
2021/03/05 18:08:43;;;;;;;8.75;2.45;;;21.80;38.60;;;;;;6221494;22;20437;-79
2021/03/05 18:11:09;;;;;;;5.32;2.72;;;21.70;38.40;;;;;;6253801;22;20014;-79
2021/03/05 18:13:35;;;;;;;5.15;2.13;;;21.80;38.30;;;;;;6223933;22;20012;-79
2021/03/05 18:16:00;;;;;;;6.68;1.80;;;21.80;38.20;;;;;;6245486;22;20023;-79
2021/03/05 18:18:26;;;;;;;4.90;2.08;;;21.70;38.20;;;;;;6266311;22;20016;-79
2021/03/05 18:20:56;;;;;;;4.43;1.88;;;21.70;38.30;;;;;;6222683;22;20373;-79
2021/03/05 18:23:22;;;;;;;5.97;1.75;;;21.70;38.40;;;;;;6219782;22;20515;-79
2021/03/05 18:25:49;;;;;;;6.70;2.17;;;21.70;38.30;;;;;;6193762;22;20404;-79
2021/03/05 18:28:15;;;;;;;6.50;2.33;;;21.60;38.30;;;;;;6218480;22;20026;-79
2021/03/05 18:30:41;;;;;;;7.10;2.42;;;21.60;38.50;;;;;;6215525;22;20044;-79
2021/03/05 18:33:07;;;;;;;5.70;2.08;;;21.60;38.50;;;;;;6219291;22;20341;-79
2021/03/05 18:35:33;;;;;;;8.73;2.58;;;21.50;38.50;;;;;;6249333;22;20019;-79
2021/03/05 18:37:59;;;;;;;6.47;1.80;;;21.50;38.50;;;;;;6248319;22;20012;-79
2021/03/05 18:40:25;;;;;;;3.58;1.80;;;21.60;38.40;;;;;;6223732;22;20016;-79
2021/03/05 18:42:51;;;;;;;7.25;1.98;;;21.60;38.40;;;;;;6223706;22;20118;-79
2021/03/05 18:45:18;;;;;;;3.60;1.80;;;21.60;38.70;;;;;;6220468;22;20102;-79
2021/03/05 18:47:45;;;;;;;5.10;1.80;;;21.50;38.30;;;;;;6249075;22;20012;-78
2021/03/05 18:50:15;;;;;;;6.25;1.95;;;21.50;38.50;;;;;;6275926;22;20057;-79
2021/03/05 18:52:41;;;;;;;4.78;1.60;;;21.50;38.50;;;;;;6223527;22;20081;-79
2021/03/05 18:55:07;;;;;;;4.32;1.92;;;21.40;38.30;;;;;;6220962;23;20420;-79
2021/03/05 18:57:33;;;;;;;4.20;1.52;;;21.40;38.60;;;;;;6217755;22;20012;-79
2021/03/05 18:59:59;;;;;;;5.28;2.05;;;21.50;38.80;;;;;;6218152;22;20020;-79
2021/03/05 19:02:25;;;;;;;5.03;2.70;;;21.40;38.50;;;;;;6218653;22;20091;-79
2021/03/05 19:04:51;;;;;;;6.75;2.10;;;21.40;38.80;;;;;;6218294;22;20050;-79
2021/03/05 19:07:17;;;;;;;4.28;1.85;;;21.40;38.80;;;;;;6214528;22;20036;-79
2021/03/05 19:09:42;;;;;;;4.68;1.83;;;21.40;38.60;;;;;;6218511;23;20061;-79
2021/03/05 19:12:08;;;;;;;3.58;1.90;;;21.40;38.70;;;;;;6255046;22;20039;-79
2021/03/05 19:14:34;;;;;;;3.90;1.73;;;21.40;38.70;;;;;;6202034;23;20373;-79
2021/03/05 19:17:00;;;;;;;6.05;2.50;;;21.40;38.80;;;;;;6268052;22;20098;-79
2021/03/05 19:19:25;;;;;;;4.28;1.67;;;21.40;38.60;;;;;;6254889;22;20022;-79
2021/03/05 19:21:51;;;;;;;3.67;2.03;;;21.40;38.70;;;;;;6218927;22;20418;-79
2021/03/05 19:24:17;;;;;;;6.82;1.85;;;21.30;38.70;;;;;;6218902;23;20078;-79
2021/03/05 19:26:42;;;;;;;4.57;2.00;;;21.30;38.70;;;;;;6218588;23;20070;-79
2021/03/05 19:29:08;;;;;;;3.92;1.77;;;21.30;38.70;;;;;;6223745;22;20433;-79
2021/03/05 19:31:34;;;;;;;7.15;2.00;;;21.30;38.70;;;;;;6218970;22;20008;-79
2021/03/05 19:34:00;;;;;;;5.30;2.15;;;21.30;38.80;;;;;;6218409;22;20016;-79
2021/03/05 19:36:26;;;;;;;4.72;1.60;;;21.30;38.70;;;;;;6209921;22;20040;-78
2021/03/05 19:38:52;;;;;;;5.55;1.92;;;21.30;38.70;;;;;;6214619;23;20016;-79
2021/03/05 19:41:17;;;;;;;4.50;1.80;;;21.30;38.60;;;;;;6214449;22;20033;-79
2021/03/05 19:43:43;;;;;;;3.78;1.75;;;21.30;38.60;;;;;;6248858;22;20015;-79
2021/03/05 19:46:10;;;;;;;5.00;1.92;;;21.20;38.40;;;;;;6244016;22;20042;-79